Time;durP1;ratioP1;P1;durP2;ratioP2;P2;SDS_P1;SDS_P2;PMS_P1;PMS_P2;Temp;Humidity;BMP_temperature;BMP_pressure;BME280_temperature;BME280_humidity;BME280_pressure;Samples;Min_cycle;Max_cycle;Signal;HPM_P1;HPM_P2
2022/03/11 00:00:45;;;;;;;17.35;8.52;;;;;;;5.46;49.21;101762.06;5068459;28;20032;-77
2022/03/11 00:03:11;;;;;;;16.98;9.45;;;;;;;5.46;49.63;101750.03;5066130;28;20032;-77
2022/03/11 00:05:37;;;;;;;16.42;8.57;;;;;;;5.42;49.34;101743.06;5053182;28;20389;-77
2022/03/11 00:08:03;;;;;;;17.73;9.73;;;;;;;5.42;49.72;101756.00;5058040;28;20032;-77
2022/03/11 00:10:29;;;;;;;16.23;8.82;;;;;;;5.37;48.63;101735.25;5058295;28;20032;-77
2022/03/11 00:12:54;;;;;;;19.40;9.43;;;;;;;5.40;49.87;101737.88;5070432;28;20024;-77
2022/03/11 00:15:19;;;;;;;20.00;9.05;;;;;;;5.42;49.72;101743.06;5052740;28;20447;-77
2022/03/11 00:17:45;;;;;;;17.58;8.98;;;;;;;5.39;49.25;101743.91;5070318;28;20032;-77
2022/03/11 00:20:10;;;;;;;18.25;9.45;;;;;;;5.38;49.59;101737.00;5071710;28;20024;-77
2022/03/11 00:22:35;;;;;;;15.23;8.70;;;;;;;5.36;49.25;101730.06;5070914;28;20041;-77
2022/03/11 00:25:01;;;;;;;15.88;9.52;;;;;;;5.33;49.97;101730.91;5072063;28;20028;-77
2022/03/11 00:27:26;;;;;;;16.33;8.60;;;;;;;5.26;50.09;101726.50;5062896;28;20035;-77
2022/03/11 00:29:51;;;;;;;18.60;9.70;;;;;;;5.26;49.82;101731.66;5065255;28;20063;-77
2022/03/11 00:32:17;;;;;;;16.95;9.20;;;;;;;5.27;50.16;101736.00;5052261;28;20123;-77
2022/03/11 00:34:42;;;;;;;18.27;9.57;;;;;;;5.14;50.04;101726.34;5051652;28;20075;-76
2022/03/11 00:37:07;;;;;;;16.00;9.20;;;;;;;5.17;50.50;101734.16;5053593;28;20021;-77
2022/03/11 00:39:32;;;;;;;18.85;9.88;;;;;;;5.20;50.75;101741.06;5068098;28;20334;-77
2022/03/11 00:41:58;;;;;;;16.52;9.82;;;;;;;5.16;50.40;101738.44;5062438;28;20075;-77
2022/03/11 00:44:23;;;;;;;17.80;9.20;;;;;;;5.11;51.05;101734.06;5052323;28;20079;-77
2022/03/11 00:46:48;;;;;;;14.85;8.85;;;;;;;5.04;51.02;101722.78;5059450;28;20025;-77
2022/03/11 00:49:13;;;;;;;17.55;10.00;;;;;;;5.02;50.64;101721.88;5051074;28;20098;-77
2022/03/11 00:51:39;;;;;;;18.42;9.50;;;;;;;4.98;51.14;101725.28;5069612;28;20029;-77
2022/03/11 00:54:04;;;;;;;18.77;10.32;;;;;;;5.02;50.60;101721.88;5066050;28;20025;-77
2022/03/11 00:56:31;;;;;;;15.60;9.55;;;;;;;5.01;50.90;101725.31;5051836;28;20033;-77
2022/03/11 00:58:57;;;;;;;21.52;9.95;;;;;;;4.98;51.51;101720.09;5060829;28;20028;-77
2022/03/11 01:01:22;;;;;;;19.10;10.02;;;;;;;4.90;51.42;101707.09;5068976;28;20549;-77
2022/03/11 01:03:48;;;;;;;18.73;10.40;;;;;;;4.89;51.29;101718.25;5071204;28;20025;-77
2022/03/11 01:06:13;;;;;;;21.58;10.40;;;;;;;4.85;51.34;101708.75;5069529;28;20111;-77
2022/03/11 01:08:38;;;;;;;19.17;10.85;;;;;;;4.81;51.89;101706.09;5064182;28;20029;-77
2022/03/11 01:11:05;;;;;;;18.85;9.70;;;;;;;4.81;52.05;101706.09;5051069;28;20032;-77
2022/03/11 01:13:30;;;;;;;21.42;10.18;;;;;;;4.80;51.35;101700.03;5057669;28;20032;-77
2022/03/11 01:15:56;;;;;;;17.23;10.23;;;;;;;4.81;51.77;101686.28;5070759;28;20028;-77
2022/03/11 01:18:21;;;;;;;18.08;10.88;;;;;;;4.81;52.06;101688.88;5071290;28;20024;-77
2022/03/11 01:20:46;;;;;;;17.13;10.18;;;;;;;4.78;52.04;101690.56;5058932;28;20032;-77
2022/03/11 01:23:11;;;;;;;18.90;10.95;;;;;;;4.75;51.71;101683.63;5051817;28;20040;-77
2022/03/11 01:25:37;;;;;;;22.40;10.55;;;;;;;4.77;51.51;101687.06;5051631;28;20033;-77
2022/03/11 01:28:02;;;;;;;22.42;10.95;;;;;;;4.77;51.49;101688.78;5051931;28;20476;-77
2022/03/11 01:30:27;;;;;;;19.38;10.32;;;;;;;4.74;51.64;101673.25;5067232;28;20029;-77
2022/03/11 01:32:53;;;;;;;21.25;10.50;;;;;;;4.76;51.53;101669.00;5071345;28;20484;-77
2022/03/11 01:35:18;;;;;;;17.92;9.85;;;;;;;4.73;51.55;101676.69;5071270;28;20434;-77
2022/03/11 01:37:44;;;;;;;19.88;10.63;;;;;;;4.76;51.00;101671.56;5068715;28;20068;-77
2022/03/11 01:40:09;;;;;;;17.15;9.98;;;;;;;4.79;51.09;101676.78;5071444;28;20020;-77
2022/03/11 01:42:36;;;;;;;18.23;9.45;;;;;;;4.74;51.31;101662.91;5065704;28;20028;-77
2022/03/11 01:45:03;;;;;;;20.45;10.88;;;;;;;4.75;51.74;101660.38;5062700;28;20094;-77
2022/03/11 01:47:30;;;;;;;16.00;10.02;;;;;;;4.72;51.20;101657.75;5058785;28;20033;-77
2022/03/11 01:49:55;;;;;;;25.77;10.77;;;;;;;4.67;51.44;101649.06;5067052;28;20506;-77
2022/03/11 01:52:22;;;;;;;18.15;9.98;;;;;;;4.73;51.41;101651.72;5051644;28;20112;-77
2022/03/11 01:54:49;;;;;;;18.15;11.05;;;;;;;4.70;51.22;101642.22;5052468;28;20025;-77
2022/03/11 01:57:14;;;;;;;22.25;10.75;;;;;;;4.64;52.15;101637.00;5070586;28;20139;-77
2022/03/11 01:59:40;;;;;;;20.90;9.82;;;;;;;4.66;51.22;101634.41;5069751;28;20511;-77
2022/03/11 02:02:09;;;;;;;17.83;9.98;;;;;;;4.65;51.49;101633.56;5071316;28;20357;-77
2022/03/11 02:04:34;;;;;;;20.00;10.23;;;;;;;4.66;51.00;101626.66;5069387;28;20032;-77
2022/03/11 02:06:59;;;;;;;19.33;9.90;;;;;;;4.67;51.14;101628.38;5052646;28;20094;-77
2022/03/11 02:09:25;;;;;;;17.27;10.43;;;;;;;4.63;51.05;101622.31;5054750;28;20469;-77
2022/03/11 02:11:50;;;;;;;17.58;8.98;;;;;;;4.64;51.25;101620.59;5046446;28;20037;-77
2022/03/11 02:14:16;;;;;;;18.75;9.82;;;;;;;4.60;52.04;101618.84;5037761;28;20063;-77
2022/03/11 02:16:41;;;;;;;17.02;9.75;;;;;;;4.53;51.51;101611.84;5039943;28;20036;-77
2022/03/11 02:19:07;;;;;;;16.60;9.90;;;;;;;4.49;52.09;101616.13;5030728;28;20104;-77
2022/03/11 02:21:44;;;;;;;18.02;10.45;;;;;;;4.44;52.13;101592.78;5031023;28;20372;-77
2022/03/11 02:24:10;;;;;;;19.60;10.52;;;;;;;4.43;52.75;101611.72;5031422;28;20030;-77
2022/03/11 02:26:36;;;;;;;17.00;9.70;;;;;;;4.42;51.80;101599.66;5030782;28;20021;-77
2022/03/11 02:29:03;;;;;;;18.52;10.40;;;;;;;4.39;52.08;101609.09;5031462;28;20033;-77
2022/03/11 02:31:29;;;;;;;18.30;10.50;;;;;;;4.38;51.48;101587.56;5046389;28;20499;-77
2022/03/11 02:33:56;;;;;;;17.27;9.95;;;;;;;4.40;50.91;101590.16;5038842;28;20428;-77
2022/03/11 02:36:21;;;;;;;19.55;10.05;;;;;;;4.36;51.39;101576.34;5049619;28;20063;-76
2022/03/11 02:38:46;;;;;;;17.55;10.00;;;;;;;4.38;52.05;101589.25;5052470;28;20057;-77
2022/03/11 02:41:12;;;;;;;20.17;10.63;;;;;;;4.36;52.33;101588.38;5041995;28;20036;-77
2022/03/11 02:43:38;;;;;;;16.55;9.90;;;;;;;4.35;52.03;101584.94;5035931;28;20438;-77
2022/03/11 02:46:03;;;;;;;17.05;9.85;;;;;;;4.31;51.65;101574.53;5034779;28;20029;-77
2022/03/11 02:48:29;;;;;;;19.27;10.50;;;;;;;4.23;52.42;101580.47;5033507;28;20034;-77
2022/03/11 02:50:55;;;;;;;16.77;10.32;;;;;;;4.21;52.09;101589.03;5034385;28;20033;-77
2022/03/11 02:53:20;;;;;;;18.90;10.98;;;;;;;4.25;52.14;101585.66;5035284;28;20432;-77
2022/03/11 02:55:47;;;;;;;20.17;9.82;;;;;;;4.23;52.13;101577.03;5034681;28;20046;-76
2022/03/11 02:58:12;;;;;;;18.25;9.90;;;;;;;4.17;52.38;101569.19;5034340;28;20040;-77
2022/03/11 03:00:38;;;;;;;24.15;10.95;;;;;;;4.16;52.41;101576.06;5038154;28;20039;-76
2022/03/11 03:03:03;;;;;;;18.77;10.18;;;;;;;4.12;52.39;101573.41;5054173;28;20037;-77
2022/03/11 03:05:28;;;;;;;17.10;9.82;;;;;;;3.98;53.10;101549.97;5053635;28;20817;-77
2022/03/11 03:07:54;;;;;;;22.48;10.65;;;;;;;4.05;52.33;101571.56;5051382;28;20044;-77
2022/03/11 03:10:19;;;;;;;17.58;10.43;;;;;;;4.03;52.01;101558.66;5053915;28;20551;-76
2022/03/11 03:12:45;;;;;;;17.83;10.45;;;;;;;4.03;52.99;101565.53;5057442;28;20031;-77
2022/03/11 03:15:10;;;;;;;19.65;10.35;;;;;;;4.06;51.99;101560.44;5067251;28;20082;-77
2022/03/11 03:17:35;;;;;;;17.65;9.98;;;;;;;4.07;52.09;101565.59;5073942;28;20047;-77
2022/03/11 03:20:03;;;;;;;20.33;10.35;;;;;;;4.05;52.33;101571.56;5073386;28;20020;-77
2022/03/11 03:22:28;;;;;;;18.13;9.55;;;;;;;4.01;51.95;101567.22;5071181;28;20064;-77
2022/03/11 03:24:53;;;;;;;17.95;10.27;;;;;;;3.89;52.38;101552.41;5073938;28;20440;-76
2022/03/11 03:27:19;;;;;;;15.50;9.55;;;;;;;3.94;52.38;101563.69;5073583;28;20523;-77
2022/03/11 03:29:44;;;;;;;17.33;9.88;;;;;;;3.94;52.31;101569.72;5057884;28;20469;-76
2022/03/11 03:32:09;;;;;;;16.52;9.43;;;;;;;3.93;52.60;101557.66;5054748;28;20029;-77
2022/03/11 03:34:37;;;;;;;17.70;9.85;;;;;;;4.05;51.77;101558.69;5054052;28;20389;-77
2022/03/11 03:37:08;;;;;;;21.10;10.10;;;;;;;4.08;51.81;101561.31;5071238;28;20025;-76
2022/03/11 03:39:34;;;;;;;17.13;9.45;;;;;;;4.05;52.37;101564.69;5072245;28;20021;-76
2022/03/11 03:42:00;;;;;;;17.27;9.55;;;;;;;4.06;51.68;101563.00;5061706;28;20024;-77
2022/03/11 03:44:25;;;;;;;19.40;10.38;;;;;;;4.06;51.70;101558.72;5064501;28;20036;-77
2022/03/11 03:46:51;;;;;;;17.23;9.73;;;;;;;4.02;51.49;101553.47;5061384;28;20027;-77
2022/03/11 03:49:16;;;;;;;17.55;9.82;;;;;;;3.98;51.65;101553.41;5072921;28;20045;-77
2022/03/11 03:51:42;;;;;;;17.45;9.93;;;;;;;3.96;52.65;101557.72;5055068;28;20045;-77
2022/03/11 03:54:11;;;;;;;17.88;9.27;;;;;;;3.94;52.75;101555.94;5053565;28;20033;-77
2022/03/11 03:56:41;;;;;;;14.95;9.10;;;;;;;3.89;52.54;101550.72;5061557;28;20021;-77
2022/03/11 03:59:08;;;;;;;19.35;9.27;;;;;;;3.85;53.14;101556.66;5055709;28;20035;-77
2022/03/11 04:01:38;;;;;;;17.42;8.82;;;;;;;3.78;52.36;101557.41;5052850;28;20029;-77
2022/03/11 04:04:05;;;;;;;16.35;9.55;;;;;;;3.77;52.76;101558.28;5053687;28;20041;-77
2022/03/11 04:06:31;;;;;;;15.98;9.43;;;;;;;3.73;53.12;101549.63;5052983;28;20083;-77
2022/03/11 04:08:57;;;;;;;17.05;9.10;;;;;;;3.72;53.04;101547.84;5066156;28;20033;-77
2022/03/11 04:11:26;;;;;;;17.30;9.93;;;;;;;3.71;52.31;101551.28;5070184;28;20040;-77
2022/03/11 04:13:53;;;;;;;16.15;9.27;;;;;;;3.73;52.58;101549.63;5056098;28;20025;-77
2022/03/11 04:16:18;;;;;;;16.92;8.98;;;;;;;3.75;52.29;101542.75;5072400;28;20020;-77
2022/03/11 04:18:45;;;;;;;14.50;9.00;;;;;;;3.80;51.99;101544.56;5072072;28;20060;-77
2022/03/11 04:21:10;;;;;;;17.30;9.20;;;;;;;3.81;52.16;101535.97;5072301;28;20029;-77
2022/03/11 04:23:35;;;;;;;16.27;9.23;;;;;;;3.89;51.87;101547.25;5070709;28;20044;-77
2022/03/11 04:26:01;;;;;;;15.63;8.90;;;;;;;3.84;52.01;101536.88;5071456;28;20035;-77
2022/03/11 04:28:26;;;;;;;15.55;8.70;;;;;;;3.92;51.66;101532.72;5072076;28;20032;-76
2022/03/11 04:30:52;;;;;;;17.98;9.10;;;;;;;3.95;51.24;101516.41;5070555;28;20063;-77
2022/03/11 04:33:18;;;;;;;16.15;9.02;;;;;;;3.92;51.44;101524.97;5071495;28;20460;-77
2022/03/11 04:35:43;;;;;;;16.40;9.13;;;;;;;3.87;52.07;101521.44;5061957;28;20082;-77
2022/03/11 04:38:09;;;;;;;15.32;8.55;;;;;;;3.88;52.00;101527.47;5054518;28;20029;-77
2022/03/11 04:40:34;;;;;;;14.30;8.73;;;;;;;3.86;51.26;101519.72;5071495;28;20029;-77
2022/03/11 04:43:01;;;;;;;15.43;8.50;;;;;;;3.88;51.63;101528.34;5055078;28;20044;-77
2022/03/11 04:45:27;;;;;;;15.80;9.40;;;;;;;3.86;51.55;101521.41;5054300;28;20029;-77
2022/03/11 04:47:52;;;;;;;14.88;8.82;;;;;;;3.86;51.32;101524.88;5051538;28;20501;-77
2022/03/11 04:50:17;;;;;;;14.07;8.68;;;;;;;3.88;51.72;101523.19;5051840;28;20133;-77
2022/03/11 04:52:42;;;;;;;19.35;8.90;;;;;;;3.95;51.56;101521.56;5052968;28;20047;-77
2022/03/11 04:55:08;;;;;;;14.07;8.02;;;;;;;3.87;51.48;101516.28;5051621;28;20033;-77
2022/03/11 04:57:33;;;;;;;16.17;9.38;;;;;;;3.91;51.58;101523.22;5060537;28;20028;-77
2022/03/11 05:00:00;;;;;;;18.20;9.05;;;;;;;3.92;51.35;101519.81;5055769;28;20021;-77
2022/03/11 05:02:27;;;;;;;13.90;7.95;;;;;;;3.96;51.44;101531.06;5060293;28;20036;-77
2022/03/11 05:04:53;;;;;;;18.15;8.93;;;;;;;3.90;50.87;101526.66;5066228;28;20017;-77
2022/03/11 05:07:19;;;;;;;13.55;8.30;;;;;;;3.90;51.28;101529.25;5068907;28;20044;-77
2022/03/11 05:09:45;;;;;;;18.60;8.55;;;;;;;3.91;51.20;101512.91;5071541;28;20036;-77
2022/03/11 05:12:10;;;;;;;14.32;8.15;;;;;;;3.89;51.01;101521.47;5058902;28;20468;-76
2022/03/11 05:14:36;;;;;;;16.70;8.10;;;;;;;3.89;50.96;101514.63;5068591;28;20055;-77
2022/03/11 05:17:01;;;;;;;13.98;7.80;;;;;;;3.90;50.81;101507.75;5062129;28;20040;-77
2022/03/11 05:19:26;;;;;;;17.58;9.30;;;;;;;3.95;50.40;101511.22;5051849;28;20048;-76
2022/03/11 05:21:52;;;;;;;17.30;8.63;;;;;;;3.95;50.46;101504.34;5051913;28;20024;-77
2022/03/11 05:24:17;;;;;;;16.85;8.73;;;;;;;3.91;51.03;101512.03;5051550;28;20040;-77
2022/03/11 05:26:43;;;;;;;16.02;8.18;;;;;;;3.86;51.40;101514.56;5062303;28;20024;-77
2022/03/11 05:29:08;;;;;;;13.32;7.90;;;;;;;3.86;50.88;101519.72;5061421;28;20028;-77
2022/03/11 05:31:33;;;;;;;17.92;8.93;;;;;;;3.84;50.95;101510.22;5052424;28;20090;-77
2022/03/11 05:33:59;;;;;;;14.80;8.63;;;;;;;3.79;51.76;101509.28;5071440;28;20499;-77
2022/03/11 05:36:24;;;;;;;17.38;8.60;;;;;;;3.73;51.94;101512.66;5068321;28;20044;-77
2022/03/11 05:38:50;;;;;;;15.80;8.85;;;;;;;3.70;51.74;101508.31;5062009;28;20033;-77
2022/03/11 05:41:15;;;;;;;13.73;8.57;;;;;;;3.70;51.86;101507.44;5052516;28;20028;-77
2022/03/11 05:43:41;;;;;;;18.20;9.32;;;;;;;3.68;51.78;101509.13;5069834;28;20027;-77
2022/03/11 05:46:07;;;;;;;15.80;8.43;;;;;;;3.71;51.87;101514.31;5070126;28;20021;-77
2022/03/11 05:48:32;;;;;;;15.80;8.68;;;;;;;3.67;51.55;101503.09;5052909;28;20029;-77
2022/03/11 05:50:58;;;;;;;20.00;8.98;;;;;;;3.65;52.58;101504.78;5051824;28;20025;-77
2022/03/11 05:53:23;;;;;;;14.52;8.45;;;;;;;3.66;52.44;101516.84;5067811;28;20037;-77
2022/03/11 05:55:49;;;;;;;20.08;8.88;;;;;;;3.64;52.89;101507.34;5055401;28;20024;-76
2022/03/11 05:58:14;;;;;;;16.88;8.70;;;;;;;3.57;53.12;101502.94;5062519;28;20047;-77
2022/03/11 06:00:39;;;;;;;16.48;8.57;;;;;;;3.57;53.70;101505.53;5051105;28;20036;-77
2022/03/11 06:03:05;;;;;;;14.80;8.27;;;;;;;3.56;52.80;101498.59;5051590;28;20036;-77
2022/03/11 06:05:30;;;;;;;21.85;8.50;;;;;;;3.57;53.51;101496.06;5052069;28;20024;-77
2022/03/11 06:07:55;;;;;;;17.25;8.32;;;;;;;3.53;54.15;101496.84;5055883;28;20838;-77
2022/03/11 06:10:21;;;;;;;18.20;8.50;;;;;;;3.48;53.82;101494.19;5065116;28;20040;-76
2022/03/11 06:12:46;;;;;;;17.55;9.13;;;;;;;3.51;54.05;101496.84;5055056;28;20397;-77
2022/03/11 06:15:12;;;;;;;14.65;8.45;;;;;;;3.58;53.92;101502.09;5074896;28;20033;-77
2022/03/11 06:17:37;;;;;;;19.95;9.18;;;;;;;3.59;53.79;101488.34;5071296;28;20033;-77
2022/03/11 06:20:04;;;;;;;14.63;8.07;;;;;;;3.69;53.22;101503.09;5055317;28;20025;-77
2022/03/11 06:22:30;;;;;;;18.17;9.10;;;;;;;3.68;53.81;101509.97;5055875;28;20094;-77
2022/03/11 06:24:56;;;;;;;18.88;8.70;;;;;;;3.72;53.85;101508.31;5054121;28;20025;-76
2022/03/11 06:27:24;;;;;;;20.90;9.10;;;;;;;3.71;54.14;101504.00;5054837;28;20029;-77
2022/03/11 06:29:49;;;;;;;17.30;8.65;;;;;;;3.74;54.13;101515.25;5071321;28;20032;-76
2022/03/11 06:32:14;;;;;;;18.27;9.32;;;;;;;3.74;54.16;101509.22;5073522;28;20040;-77
2022/03/11 06:34:42;;;;;;;20.48;9.15;;;;;;;3.71;54.34;101506.59;5074364;28;20052;-76
2022/03/11 06:37:08;;;;;;;17.65;8.93;;;;;;;3.77;54.74;101506.69;5072731;28;20460;-77
2022/03/11 06:39:33;;;;;;;17.05;9.00;;;;;;;3.78;54.38;101510.13;5072329;28;20081;-76
2022/03/11 06:41:58;;;;;;;20.02;9.15;;;;;;;3.86;53.70;101493.94;5054385;28;20052;-76
2022/03/11 06:44:23;;;;;;;19.13;9.07;;;;;;;3.92;54.71;101504.34;5054287;28;20400;-76
2022/03/11 06:46:49;;;;;;;18.38;8.98;;;;;;;3.93;54.58;101512.94;5061538;28;20480;-77
2022/03/11 06:49:14;;;;;;;22.42;8.95;;;;;;;3.96;54.04;101513.00;5059129;28;20070;-77
2022/03/11 06:51:39;;;;;;;16.73;9.38;;;;;;;3.99;53.45;101495.84;5064724;28;20025;-77
2022/03/11 06:54:07;;;;;;;15.43;8.73;;;;;;;4.10;53.84;101503.72;5053889;28;20107;-77
2022/03/11 06:56:34;;;;;;;17.63;9.05;;;;;;;4.13;54.35;101502.91;5054594;28;20025;-77
2022/03/11 06:58:59;;;;;;;16.00;9.13;;;;;;;4.14;54.06;101497.75;5054510;28;20388;-77
2022/03/11 07:01:24;;;;;;;22.15;9.68;;;;;;;4.22;53.94;101503.03;5063703;28;20032;-77
2022/03/11 07:03:50;;;;;;;17.38;9.20;;;;;;;4.25;53.72;101495.31;5072481;28;20044;-77
2022/03/11 07:06:15;;;;;;;24.20;9.80;;;;;;;4.37;52.62;101497.19;5072283;28;20146;-77
2022/03/11 07:08:40;;;;;;;22.75;9.40;;;;;;;4.40;52.90;101484.31;5072921;28;20036;-77
2022/03/11 07:11:06;;;;;;;25.02;9.80;;;;;;;4.45;52.98;101493.84;5072568;28;20052;-77
2022/03/11 07:13:31;;;;;;;19.30;8.82;;;;;;;4.50;53.08;101482.69;5055256;28;20040;-77
2022/03/11 07:15:57;;;;;;;18.77;9.30;;;;;;;4.57;52.79;101479.34;5071595;28;20037;-76
2022/03/11 07:18:22;;;;;;;24.67;9.88;;;;;;;4.63;52.30;101482.00;5060501;28;20033;-77
2022/03/11 07:20:48;;;;;;;20.85;9.88;;;;;;;4.67;52.75;101482.03;5053972;28;20044;-77
2022/03/11 07:23:13;;;;;;;19.25;9.38;;;;;;;4.74;52.22;101477.81;5053925;28;20036;-77
2022/03/11 07:25:39;;;;;;;17.17;9.20;;;;;;;4.79;52.34;101491.63;5053566;28;20047;-77
2022/03/11 07:28:04;;;;;;;20.90;9.60;;;;;;;4.80;52.72;101475.28;5066495;28;20401;-77
2022/03/11 07:30:29;;;;;;;17.08;9.68;;;;;;;4.88;52.60;101486.56;5073185;28;20111;-77
2022/03/11 07:32:55;;;;;;;16.92;9.88;;;;;;;4.93;51.86;101484.88;5073125;28;20021;-77
2022/03/11 07:35:20;;;;;;;20.55;10.55;;;;;;;4.99;52.50;101481.50;5072919;28;20024;-77
2022/03/11 07:37:45;;;;;;;16.90;9.60;;;;;;;5.04;52.41;101491.91;5071551;28;20095;-77
2022/03/11 07:40:12;;;;;;;17.25;9.45;;;;;;;5.06;52.41;101485.88;5073544;28;20480;-77
2022/03/11 07:42:42;;;;;;;19.52;10.23;;;;;;;5.12;51.95;101482.50;5065367;28;20085;-77
2022/03/11 07:45:10;;;;;;;16.92;9.85;;;;;;;5.18;51.67;101476.53;5073676;28;20017;-77
2022/03/11 07:47:36;;;;;;;16.00;9.68;;;;;;;5.25;51.93;101474.00;5065009;28;20104;-77
2022/03/11 07:50:01;;;;;;;18.98;10.52;;;;;;;5.32;51.49;101473.19;5058003;28;20115;-77
2022/03/11 07:52:26;;;;;;;22.33;10.52;;;;;;;5.39;51.67;101480.16;5057821;28;20078;-77
2022/03/11 07:54:52;;;;;;;20.13;10.40;;;;;;;5.44;51.61;101472.44;5052894;28;20025;-77
2022/03/11 07:57:17;;;;;;;17.27;10.07;;;;;;;5.52;51.43;101470.75;5052458;28;20021;-77
2022/03/11 07:59:42;;;;;;;22.23;9.75;;;;;;;5.58;51.67;101469.94;5053101;28;20487;-77
2022/03/11 08:02:08;;;;;;;23.13;9.93;;;;;;;5.62;51.26;101464.81;5053355;28;20029;-76
2022/03/11 08:04:33;;;;;;;20.20;10.45;;;;;;;5.70;50.53;101458.81;5052287;28;20032;-76
2022/03/11 08:07:06;;;;;;;20.80;10.93;;;;;;;5.76;51.16;101454.53;5048593;28;20376;-76
2022/03/11 08:09:35;;;;;;;19.67;10.23;;;;;;;5.76;51.02;101449.38;5033872;28;20041;-76
2022/03/11 08:12:00;;;;;;;22.42;10.60;;;;;;;5.89;50.67;101449.44;5033498;28;20022;-77
2022/03/11 08:14:25;;;;;;;21.15;10.20;;;;;;;5.96;50.46;101440.88;5035433;28;20036;-76
2022/03/11 08:16:50;;;;;;;18.13;10.57;;;;;;;5.99;50.61;101440.91;5052805;28;20033;-76
2022/03/11 08:19:16;;;;;;;19.77;10.70;;;;;;;6.09;50.39;101447.84;5052091;28;20044;-77
2022/03/11 08:21:41;;;;;;;19.23;10.07;;;;;;;6.18;50.86;101452.19;5046436;28;20033;-76
2022/03/11 08:24:07;;;;;;;21.40;10.30;;;;;;;6.25;50.34;101456.56;5033380;28;20473;-76
2022/03/11 08:26:32;;;;;;;21.20;11.05;;;;;;;6.26;50.34;101447.91;5032541;28;20025;-76
2022/03/11 08:28:58;;;;;;;19.17;10.75;;;;;;;6.36;50.77;101443.63;5032924;28;20048;-76
2022/03/11 08:31:23;;;;;;;20.23;10.55;;;;;;;6.46;50.36;101453.16;5031938;28;20064;-76
2022/03/11 08:33:49;;;;;;;23.77;10.38;;;;;;;6.56;49.59;101449.75;5032010;28;20025;-77
2022/03/11 08:36:14;;;;;;;24.73;11.30;;;;;;;6.65;49.41;101449.78;5032440;28;20033;-76
2022/03/11 08:38:40;;;;;;;18.75;11.70;;;;;;;6.73;49.28;101442.88;5031513;28;20061;-76
2022/03/11 08:41:07;;;;;;;22.38;11.02;;;;;;;6.77;48.88;101439.44;5036566;28;20040;-76
2022/03/11 08:43:34;;;;;;;18.90;10.10;;;;;;;6.85;50.05;101434.25;5052106;28;20388;-76
2022/03/11 08:46:01;;;;;;;21.45;10.98;;;;;;;6.95;49.52;101440.31;5065037;28;20136;-76
2022/03/11 08:48:28;;;;;;;21.17;10.63;;;;;;;7.01;48.43;101429.97;5071970;28;20017;-77
2022/03/11 08:50:53;;;;;;;23.42;11.52;;;;;;;7.08;49.02;101426.50;5070427;28;20078;-77
2022/03/11 08:53:19;;;;;;;18.13;11.57;;;;;;;7.15;49.31;101425.63;5070976;28;20100;-76
2022/03/11 08:55:44;;;;;;;19.77;10.60;;;;;;;7.23;48.56;101425.66;5072252;28;20494;-76
2022/03/11 08:58:09;;;;;;;18.15;10.77;;;;;;;7.29;49.20;101438.59;5070149;28;20080;-77
2022/03/11 09:00:35;;;;;;;19.23;10.98;;;;;;;7.38;48.84;101424.75;5071409;28;20460;-76
2022/03/11 09:03:00;;;;;;;20.10;11.05;;;;;;;7.44;48.73;101423.00;5072130;28;20038;-77
2022/03/11 09:05:25;;;;;;;20.65;12.80;;;;;;;7.57;49.01;101410.88;5070063;28;20516;-77
2022/03/11 09:07:51;;;;;;;21.33;11.02;;;;;;;7.68;48.17;101408.25;5070990;28;20487;-76
2022/03/11 09:10:18;;;;;;;21.30;12.02;;;;;;;7.82;48.70;101413.44;5071994;28;20021;-76
2022/03/11 09:12:44;;;;;;;21.10;11.60;;;;;;;7.87;48.28;101409.09;5070043;28;20070;-76
2022/03/11 09:15:10;;;;;;;20.75;10.98;;;;;;;8.01;48.80;101412.50;5059962;28;20028;-76
2022/03/11 09:17:36;;;;;;;22.55;11.30;;;;;;;8.10;47.63;101409.84;5051935;28;20120;-77
2022/03/11 09:20:03;;;;;;;20.40;11.90;;;;;;;8.15;48.37;101413.31;5051829;28;20100;-77
2022/03/11 09:22:30;;;;;;;19.33;11.00;;;;;;;8.25;47.61;101408.94;5051746;28;20048;-77
2022/03/11 09:24:55;;;;;;;19.27;11.70;;;;;;;8.37;47.54;101403.69;5071844;28;20056;-77
2022/03/11 09:27:23;;;;;;;21.25;11.02;;;;;;;8.49;47.09;101405.38;5069544;28;20066;-77
2022/03/11 09:29:49;;;;;;;20.38;11.30;;;;;;;8.59;46.75;101393.19;5062377;28;20380;-78
2022/03/11 09:32:14;;;;;;;24.90;11.60;;;;;;;8.67;47.76;101388.81;5052598;28;20048;-76
2022/03/11 09:34:40;;;;;;;22.35;11.48;;;;;;;8.80;46.43;101393.03;5058060;28;20116;-78
2022/03/11 09:37:06;;;;;;;21.27;11.30;;;;;;;8.89;46.39;101386.91;5071448;28;20020;-76
2022/03/11 09:39:32;;;;;;;19.92;11.77;;;;;;;9.03;46.16;101389.41;5062239;28;20083;-76
2022/03/11 09:41:57;;;;;;;21.63;11.07;;;;;;;9.14;46.58;101387.56;5053697;28;20054;-76
2022/03/11 09:44:24;;;;;;;19.00;11.20;;;;;;;9.23;45.97;101376.22;5050776;28;20033;-76
2022/03/11 09:46:50;;;;;;;18.05;10.68;;;;;;;9.35;46.59;101376.97;5054730;28;20099;-76
2022/03/11 09:49:16;;;;;;;22.17;10.75;;;;;;;9.45;45.68;101375.13;5053068;28;20128;-76
2022/03/11 09:51:42;;;;;;;16.98;10.73;;;;;;;9.53;45.81;101375.03;5053715;28;20017;-76
2022/03/11 09:54:09;;;;;;;27.67;11.57;;;;;;;9.61;45.76;101361.09;5054134;28;20017;-76
2022/03/11 09:56:35;;;;;;;19.25;10.88;;;;;;;9.78;46.41;101357.41;5059986;28;20071;-76
2022/03/11 09:59:01;;;;;;;19.77;11.35;;;;;;;9.85;45.62;101346.03;5073084;28;20033;-74
2022/03/11 10:01:26;;;;;;;23.20;11.25;;;;;;;9.90;44.74;101351.19;5051861;28;20032;-76
2022/03/11 10:03:52;;;;;;;24.70;12.23;;;;;;;10.05;45.54;101349.25;5046001;28;20470;-76
2022/03/11 10:06:36;;;;;;;20.85;11.85;;;;;;;10.09;45.37;101350.91;5049766;28;20085;-76
2022/03/11 10:09:02;;;;;;;19.40;11.23;;;;;;;10.16;45.04;101356.91;5047873;28;20043;-77
2022/03/11 10:11:27;;;;;;;22.13;11.68;;;;;;;10.22;44.61;101349.00;5054395;28;20025;-76
2022/03/11 10:14:02;;;;;;;20.95;11.20;;;;;;;10.30;44.39;101333.31;5054887;28;20087;-76
2022/03/11 10:16:30;;;;;;;19.02;12.23;;;;;;;10.39;45.31;101334.91;5045261;28;20457;-76
2022/03/11 10:19:06;;;;;;;17.98;11.95;;;;;;;10.49;44.52;101329.53;5051370;28;20025;-76
2022/03/11 10:21:34;;;;;;;20.92;12.43;;;;;;;10.59;44.32;101330.25;5051005;28;20039;-76
2022/03/11 10:24:01;;;;;;;18.08;11.25;;;;;;;10.72;44.34;101323.94;5053907;28;20029;-76
2022/03/11 10:26:37;;;;;;;18.90;11.27;;;;;;;10.87;44.60;101330.69;5054464;28;20032;-76
2022/03/11 10:29:04;;;;;;;20.17;11.82;;;;;;;11.00;44.15;101328.72;5052267;28;20095;-76
2022/03/11 10:31:35;;;;;;;23.20;12.43;;;;;;;11.07;43.62;101326.84;5053873;28;20033;-76
2022/03/11 10:34:21;;;;;;;22.92;11.63;;;;;;;11.16;44.63;101324.09;5054074;28;20029;-76
2022/03/11 10:36:50;;;;;;;19.40;11.63;;;;;;;11.30;43.97;101321.22;5034958;28;20503;-76
2022/03/11 10:39:28;;;;;;;17.35;11.02;;;;;;;11.41;43.52;101307.09;5045109;28;20488;-76
2022/03/11 10:41:55;;;;;;;17.92;10.30;;;;;;;11.60;43.99;101301.47;5050567;28;20036;-76
2022/03/11 10:44:26;;;;;;;20.10;12.02;;;;;;;11.75;43.02;101311.63;5050268;28;20029;-77
2022/03/11 10:46:55;;;;;;;19.23;10.55;;;;;;;11.81;42.88;101295.81;5053656;28;20415;-77
2022/03/11 10:49:33;;;;;;;19.65;10.50;;;;;;;11.86;42.95;101288.75;5042177;28;20063;-77
2022/03/11 10:52:00;;;;;;;17.33;10.98;;;;;;;11.93;42.98;101295.59;5053986;28;20481;-76
2022/03/11 10:54:27;;;;;;;16.45;10.23;;;;;;;12.01;42.79;101282.34;5052035;28;20017;-77
2022/03/11 10:56:53;;;;;;;18.23;11.05;;;;;;;12.06;42.81;101283.09;5053141;28;20029;-76
2022/03/11 10:59:21;;;;;;;23.38;11.63;;;;;;;12.19;43.00;101275.84;5053554;28;20036;-76
2022/03/11 11:01:48;;;;;;;25.23;11.52;;;;;;;12.41;43.07;101270.97;5050664;28;20055;-76
2022/03/11 11:04:15;;;;;;;20.20;12.27;;;;;;;12.53;42.38;101278.53;5052398;28;20028;-77
2022/03/11 11:06:41;;;;;;;19.92;12.30;;;;;;;12.59;42.06;101267.91;5052805;28;20392;-76
2022/03/11 11:09:08;;;;;;;21.05;12.27;;;;;;;12.65;41.38;101265.16;5053999;28;20021;-76
2022/03/11 11:11:34;;;;;;;21.42;12.35;;;;;;;12.67;40.98;101272.94;5054234;28;20040;-76
2022/03/11 11:14:05;;;;;;;23.67;12.43;;;;;;;12.75;42.18;101273.63;5052364;28;20384;-76
2022/03/11 11:16:38;;;;;;;19.30;12.88;;;;;;;12.73;40.70;101264.94;5053304;28;20039;-76